Time;durP1;ratioP1;P1;durP2;ratioP2;P2;SDS_P1;SDS_P2;PMS_P1;PMS_P2;Temp;Humidity;BMP_temperature;BMP_pressure;BME280_temperature;BME280_humidity;BME280_pressure;Samples;Min_cycle;Max_cycle;Signal;HPM_P1;HPM_P2
2023/05/25 00:00:39;;;;;;;;;;;10.20;99.90;;;;;;5135694;27;19913;-46
2023/05/25 00:03:05;;;;;;;;;;;10.20;99.90;;;;;;5134284;27;19907;-45
2023/05/25 00:05:30;;;;;;;;;;;10.10;99.90;;;;;;5135462;27;20289;-45
2023/05/25 00:07:56;;;;;;;;;;;10.10;99.90;;;;;;5135586;27;20014;-43
2023/05/25 00:10:21;;;;;;;;;;;10.10;99.90;;;;;;5134622;27;19908;-45
2023/05/25 00:12:47;;;;;;;;;;;10.10;99.90;;;;;;5135551;27;19907;-44
2023/05/25 00:15:12;;;;;;;;;;;10.10;99.90;;;;;;5135330;27;19915;-45
2023/05/25 00:17:39;;;;;;;;;;;10.10;99.90;;;;;;5134572;27;20369;-47
2023/05/25 00:20:08;;;;;;;;;;;10.10;99.90;;;;;;5135407;27;19908;-45
2023/05/25 00:22:37;;;;;;;;;;;10.10;99.90;;;;;;5134834;27;20354;-45
2023/05/25 00:25:03;;;;;;;;;;;10.00;99.90;;;;;;5134527;27;19915;-44
2023/05/25 00:27:29;;;;;;;;;;;9.90;99.90;;;;;;5135167;27;19948;-45
2023/05/25 00:29:55;;;;;;;;;;;9.90;99.90;;;;;;5134398;27;19973;-45
2023/05/25 00:32:20;;;;;;;;;;;9.90;99.90;;;;;;5134992;27;19962;-44
2023/05/25 00:34:46;;;;;;;;;;;9.80;99.90;;;;;;5134913;27;19994;-44
2023/05/25 00:37:11;;;;;;;;;;;9.80;99.90;;;;;;5134288;27;20353;-45
2023/05/25 00:39:37;;;;;;;;;;;9.80;99.90;;;;;;5134764;27;19911;-43
2023/05/25 00:42:02;;;;;;;;;;;9.80;99.90;;;;;;5124223;27;19919;-46
2023/05/25 00:44:28;;;;;;;;;;;9.80;99.90;;;;;;5113434;28;20263;-46
2023/05/25 00:46:53;;;;;;;;;;;9.70;99.90;;;;;;5114416;28;19976;-44
2023/05/25 00:49:20;;;;;;;;;;;9.60;99.90;;;;;;5114158;28;20597;-43
2023/05/25 00:51:46;;;;;;;;;;;9.60;99.90;;;;;;5113383;28;19911;-44
2023/05/25 00:54:15;;;;;;;;;;;9.50;99.90;;;;;;5114070;28;19907;-48
2023/05/25 00:56:43;;;;;;;;;;;9.50;99.90;;;;;;5114204;28;19957;-45
2023/05/25 00:59:11;;;;;;;;;;;9.40;99.90;;;;;;5113254;28;19915;-44
2023/05/25 01:01:38;;;;;;;;;;;9.40;99.90;;;;;;5122968;27;19915;-45
2023/05/25 01:04:09;;;;;;;;;;;9.30;99.90;;;;;;5148907;27;19997;-46
2023/05/25 01:06:35;;;;;;;;;;;9.30;99.90;;;;;;5154010;27;19915;-44
2023/05/25 01:09:02;;;;;;;;;;;9.30;99.90;;;;;;5153933;27;19908;-44
2023/05/25 01:11:31;;;;;;;;;;;9.20;99.90;;;;;;5134263;27;20334;-47
2023/05/25 01:13:57;;;;;;;;;;;9.20;99.90;;;;;;5131595;27;20277;-44
2023/05/25 01:16:24;;;;;;;;;;;9.20;99.90;;;;;;5133326;27;19998;-43
2023/05/25 01:18:51;;;;;;;;;;;9.10;99.90;;;;;;5133998;27;19908;-44
2023/05/25 01:21:21;;;;;;;;;;;9.10;99.90;;;;;;5124947;27;20259;-46
2023/05/25 01:23:54;;;;;;;;;;;9.10;99.90;;;;;;5113773;28;20003;-44
2023/05/25 01:26:22;;;;;;;;;;;9.10;99.90;;;;;;5112976;28;20230;-44
2023/05/25 01:28:50;;;;;;;;;;;9.10;99.90;;;;;;5113629;28;19968;-44
2023/05/25 01:31:16;;;;;;;;;;;9.10;99.90;;;;;;5113499;28;20340;-44
2023/05/25 01:33:43;;;;;;;;;;;9.10;99.90;;;;;;5124030;27;20009;-48
2023/05/25 01:36:08;;;;;;;;;;;9.10;99.90;;;;;;5133635;27;19923;-45
2023/05/25 01:38:34;;;;;;;;;;;9.10;99.90;;;;;;5133991;27;19908;-46
2023/05/25 01:40:59;;;;;;;;;;;9.00;99.90;;;;;;5132401;27;19912;-47
2023/05/25 01:43:25;;;;;;;;;;;9.10;99.90;;;;;;5133789;27;19977;-46
2023/05/25 01:45:55;;;;;;;;;;;9.00;99.90;;;;;;5121792;27;19920;-45
2023/05/25 01:48:20;;;;;;;;;;;9.00;99.90;;;;;;5112384;28;20255;-43
2023/05/25 01:50:58;;;;;;;;;;;9.00;99.90;;;;;;5113256;28;20048;-46
2023/05/25 01:53:43;;;;;;;;;;;9.00;99.90;;;;;;5113156;28;19915;-44
2023/05/25 01:56:10;;;;;;;;;;;9.00;99.90;;;;;;5097926;28;20381;-45
2023/05/25 01:58:42;;;;;;;;;;;9.00;99.90;;;;;;5113148;28;20383;-47
2023/05/25 02:01:08;;;;;;;;;;;8.90;99.90;;;;;;5112819;28;19917;-43
2023/05/25 02:03:35;;;;;;;;;;;8.90;99.90;;;;;;5112636;28;20010;-45
2023/05/25 02:06:00;;;;;;;;;;;9.00;99.90;;;;;;5113018;28;19916;-44
2023/05/25 02:08:26;;;;;;;;;;;8.90;99.90;;;;;;5112216;28;19914;-47
2023/05/25 02:10:51;;;;;;;;;;;8.90;99.90;;;;;;5113001;28;19918;-44
2023/05/25 02:13:17;;;;;;;;;;;8.90;99.90;;;;;;5112860;28;20282;-44
2023/05/25 02:15:42;;;;;;;;;;;8.80;99.90;;;;;;5112148;28;19914;-45
2023/05/25 02:18:08;;;;;;;;;;;8.80;99.90;;;;;;5113016;28;19912;-44
2023/05/25 02:20:35;;;;;;;;;;;8.80;99.90;;;;;;5094422;28;19916;-43
2023/05/25 02:23:00;;;;;;;;;;;8.80;99.90;;;;;;5112407;28;19907;-45
2023/05/25 02:25:26;;;;;;;;;;;8.70;99.90;;;;;;5112763;28;19912;-43
2023/05/25 02:27:51;;;;;;;;;;;8.70;99.90;;;;;;5116069;28;19912;-46
2023/05/25 02:30:16;;;;;;;;;;;8.70;99.90;;;;;;5116116;28;20354;-43
2023/05/25 02:32:42;;;;;;;;;;;8.70;99.90;;;;;;5116965;28;19912;-45
2023/05/25 02:35:08;;;;;;;;;;;8.70;99.90;;;;;;5116662;28;20045;-47
2023/05/25 02:37:33;;;;;;;;;;;8.70;99.90;;;;;;5116256;28;20417;-46
2023/05/25 02:39:59;;;;;;;;;;;8.70;99.90;;;;;;5116903;28;20350;-44
2023/05/25 02:42:25;;;;;;;;;;;8.60;99.90;;;;;;5116879;27;19912;-45
2023/05/25 02:44:50;;;;;;;;;;;8.60;99.90;;;;;;5115794;28;19930;-45
2023/05/25 02:47:16;;;;;;;;;;;8.50;99.90;;;;;;5116590;28;20374;-48
2023/05/25 02:49:42;;;;;;;;;;;8.60;99.90;;;;;;5116557;28;19908;-46
2023/05/25 02:52:08;;;;;;;;;;;8.60;99.90;;;;;;5115787;28;19919;-47
2023/05/25 02:54:33;;;;;;;;;;;8.60;99.90;;;;;;5116428;28;20380;-45
2023/05/25 02:56:59;;;;;;;;;;;8.60;99.90;;;;;;5116000;28;20010;-45
2023/05/25 02:59:24;;;;;;;;;;;8.60;99.90;;;;;;5115557;28;19960;-43
2023/05/25 03:01:50;;;;;;;;;;;8.60;99.90;;;;;;5116420;28;20285;-44
2023/05/25 03:04:16;;;;;;;;;;;8.70;99.90;;;;;;5116042;28;20380;-45
2023/05/25 03:06:44;;;;;;;;;;;8.70;99.90;;;;;;5115572;28;19923;-45
2023/05/25 03:09:09;;;;;;;;;;;8.70;99.90;;;;;;5116274;28;19947;-44
2023/05/25 03:11:35;;;;;;;;;;;8.70;99.90;;;;;;5115170;28;19958;-44
2023/05/25 03:14:00;;;;;;;;;;;8.70;99.90;;;;;;5116058;28;19908;-46
2023/05/25 03:16:26;;;;;;;;;;;8.60;99.90;;;;;;5116022;28;19931;-45
2023/05/25 03:18:51;;;;;;;;;;;8.60;99.90;;;;;;5117695;27;19912;-47
2023/05/25 03:21:17;;;;;;;;;;;8.70;99.90;;;;;;5136805;27;19908;-44
2023/05/25 03:23:42;;;;;;;;;;;8.60;99.90;;;;;;5136491;27;19915;-45
2023/05/25 03:26:08;;;;;;;;;;;8.70;99.90;;;;;;5135510;27;19919;-47
2023/05/25 03:28:33;;;;;;;;;;;8.70;99.90;;;;;;5136401;27;19912;-44
2023/05/25 03:30:59;;;;;;;;;;;8.70;99.90;;;;;;5136322;27;20383;-44
2023/05/25 03:33:24;;;;;;;;;;;8.70;99.90;;;;;;5135488;27;19914;-43
2023/05/25 03:35:50;;;;;;;;;;;8.70;99.90;;;;;;5135981;27;19963;-48
2023/05/25 03:38:15;;;;;;;;;;;8.80;99.90;;;;;;5135093;27;20327;-45
2023/05/25 03:40:42;;;;;;;;;;;8.80;99.90;;;;;;5129880;27;20225;-46
2023/05/25 03:43:08;;;;;;;;;;;8.80;99.90;;;;;;5115443;28;20003;-46
2023/05/25 03:45:33;;;;;;;;;;;8.90;99.90;;;;;;5115685;28;19969;-45
2023/05/25 03:47:59;;;;;;;;;;;8.90;99.90;;;;;;5114781;28;19908;-43
2023/05/25 03:50:24;;;;;;;;;;;8.90;99.90;;;;;;5115320;28;19907;-44
2023/05/25 03:52:50;;;;;;;;;;;8.90;99.90;;;;;;5115415;28;19961;-48
2023/05/25 03:55:15;;;;;;;;;;;9.00;99.90;;;;;;5114520;28;20323;-44
2023/05/25 03:57:41;;;;;;;;;;;9.00;99.90;;;;;;5115184;28;19916;-45
2023/05/25 04:00:08;;;;;;;;;;;9.00;99.90;;;;;;5115047;28;19915;-47
2023/05/25 04:02:34;;;;;;;;;;;9.00;99.90;;;;;;5114660;28;19955;-46
2023/05/25 04:04:59;;;;;;;;;;;9.00;99.90;;;;;;5115118;28;19965;-45
2023/05/25 04:07:26;;;;;;;;;;;9.00;99.90;;;;;;5124471;27;19915;-44
2023/05/25 04:09:51;;;;;;;;;;;9.10;99.90;;;;;;5135040;27;19912;-44
2023/05/25 04:12:17;;;;;;;;;;;9.10;99.90;;;;;;5130376;27;20002;-45
2023/05/25 04:14:42;;;;;;;;;;;9.10;99.90;;;;;;5135191;27;19907;-46
2023/05/25 04:17:08;;;;;;;;;;;9.10;99.90;;;;;;5134975;27;19915;-45
2023/05/25 04:19:34;;;;;;;;;;;9.20;99.90;;;;;;5132024;27;19918;-43
2023/05/25 04:21:59;;;;;;;;;;;9.20;99.90;;;;;;5124433;27;20002;-45
2023/05/25 04:24:25;;;;;;;;;;;9.20;99.90;;;;;;5132056;27;20322;-44
2023/05/25 04:26:50;;;;;;;;;;;9.20;99.90;;;;;;5135050;27;19919;-44
2023/05/25 04:29:16;;;;;;;;;;;9.20;99.90;;;;;;5134567;27;19908;-46
2023/05/25 04:31:43;;;;;;;;;;;9.20;99.90;;;;;;5135191;27;19943;-44
2023/05/25 04:34:08;;;;;;;;;;;9.20;99.90;;;;;;5127622;27;19922;-43
2023/05/25 04:36:37;;;;;;;;;;;9.20;99.90;;;;;;5132726;27;19927;-46
2023/05/25 04:39:03;;;;;;;;;;;9.20;99.90;;;;;;5129620;27;19964;-45
2023/05/25 04:41:28;;;;;;;;;;;9.20;99.90;;;;;;5137591;27;19919;-44
2023/05/25 04:43:54;;;;;;;;;;;9.20;99.90;;;;;;5140384;27;19911;-47
2023/05/25 04:46:19;;;;;;;;;;;9.30;99.90;;;;;;5150855;27;19915;-44
2023/05/25 04:48:45;;;;;;;;;;;9.30;99.90;;;;;;5147488;27;19907;-44
2023/05/25 04:51:11;;;;;;;;;;;9.30;99.90;;;;;;5154836;27;20013;-45
2023/05/25 04:53:36;;;;;;;;;;;9.40;99.90;;;;;;5148496;27;20062;-47
2023/05/25 04:56:02;;;;;;;;;;;9.40;99.90;;;;;;5119839;27;20413;-44
2023/05/25 04:58:32;;;;;;;;;;;9.50;99.90;;;;;;5113245;28;19956;-47
2023/05/25 05:00:57;;;;;;;;;;;9.50;99.90;;;;;;5114177;27;19915;-44
2023/05/25 05:03:23;;;;;;;;;;;9.60;99.90;;;;;;5124989;27;19991;-45
2023/05/25 05:05:49;;;;;;;;;;;9.70;99.90;;;;;;5138914;27;19942;-44
2023/05/25 05:08:14;;;;;;;;;;;9.70;99.90;;;;;;5129038;27;19912;-43
2023/05/25 05:10:40;;;;;;;;;;;9.70;99.90;;;;;;5133966;27;19960;-44
2023/05/25 05:13:05;;;;;;;;;;;9.80;99.90;;;;;;5133742;27;19908;-45
2023/05/25 05:15:31;;;;;;;;;;;9.90;99.90;;;;;;5134238;27;19918;-43
2023/05/25 05:17:56;;;;;;;;;;;9.90;99.90;;;;;;5134062;27;19907;-45
2023/05/25 05:20:22;;;;;;;;;;;10.00;99.90;;;;;;5133528;27;19907;-43
2023/05/25 05:22:47;;;;;;;;;;;10.10;99.90;;;;;;5134140;27;19907;-45
2023/05/25 05:25:13;;;;;;;;;;;10.10;99.90;;;;;;5133242;27;19908;-45
2023/05/25 05:27:39;;;;;;;;;;;10.20;99.90;;;;;;5144237;27;19915;-45
2023/05/25 05:30:05;;;;;;;;;;;10.30;99.90;;;;;;5124245;27;19919;-45
2023/05/25 05:32:30;;;;;;;;;;;10.40;99.90;;;;;;5119334;27;19915;-46
2023/05/25 05:34:55;;;;;;;;;;;10.50;99.90;;;;;;5123508;27;19995;-43
2023/05/25 05:37:21;;;;;;;;;;;10.50;99.90;;;;;;5119536;27;20297;-44
2023/05/25 05:39:46;;;;;;;;;;;10.70;99.90;;;;;;5126818;27;19915;-44
2023/05/25 05:42:12;;;;;;;;;;;10.70;99.90;;;;;;5121409;27;19911;-43
2023/05/25 05:44:37;;;;;;;;;;;10.80;99.90;;;;;;5123202;27;19984;-46
2023/05/25 05:47:03;;;;;;;;;;;10.90;99.90;;;;;;5119681;27;20435;-44
2023/05/25 05:49:29;;;;;;;;;;;10.90;99.90;;;;;;5113317;28;19908;-47
2023/05/25 05:51:54;;;;;;;;;;;11.00;99.90;;;;;;5127833;27;20315;-46
2023/05/25 05:54:20;;;;;;;;;;;11.10;99.90;;;;;;5119497;27;19911;-47
2023/05/25 05:56:45;;;;;;;;;;;11.10;99.90;;;;;;5120582;27;19911;-44
2023/05/25 05:59:11;;;;;;;;;;;11.20;99.90;;;;;;5129721;27;19950;-45
2023/05/25 06:01:36;;;;;;;;;;;11.20;99.90;;;;;;5143913;27;19934;-43
2023/05/25 06:04:04;;;;;;;;;;;11.30;99.90;;;;;;5145086;27;19911;-44
2023/05/25 06:06:31;;;;;;;;;;;11.40;99.90;;;;;;5136700;27;19920;-44
2023/05/25 06:08:57;;;;;;;;;;;11.50;99.90;;;;;;5142684;27;19914;-44
2023/05/25 06:11:22;;;;;;;;;;;11.60;99.90;;;;;;5132716;27;20006;-44
2023/05/25 06:13:48;;;;;;;;;;;11.70;99.90;;;;;;5128304;28;19915;-44
2023/05/25 06:16:13;;;;;;;;;;;11.80;99.90;;;;;;5113178;28;19912;-45
2023/05/25 06:18:39;;;;;;;;;;;11.80;99.90;;;;;;5126763;28;20359;-47
2023/05/25 06:21:05;;;;;;;;;;;11.90;99.90;;;;;;5125458;27;19918;-46
2023/05/25 06:23:31;;;;;;;;;;;12.00;99.90;;;;;;5133731;28;19908;-47
2023/05/25 06:25:56;;;;;;;;;;;12.20;99.90;;;;;;5133291;28;19969;-48
2023/05/25 06:28:21;;;;;;;;;;;12.30;99.90;;;;;;5133831;27;19911;-44
2023/05/25 06:30:47;;;;;;;;;;;12.40;99.90;;;;;;5135036;27;19943;-45
2023/05/25 06:33:12;;;;;;;;;;;12.50;99.90;;;;;;5133274;28;19960;-47
2023/05/25 06:35:38;;;;;;;;;;;12.60;99.90;;;;;;5131384;28;19923;-44
2023/05/25 06:38:03;;;;;;;;;;;12.70;99.90;;;;;;5133339;28;19908;-45
2023/05/25 06:40:29;;;;;;;;;;;12.80;99.90;;;;;;5133307;28;19946;-45
2023/05/25 06:42:54;;;;;;;;;;;12.80;99.90;;;;;;5132623;28;20255;-46
2023/05/25 06:45:20;;;;;;;;;;;12.90;99.90;;;;;;5133228;28;20281;-43
2023/05/25 06:47:45;;;;;;;;;;;12.90;99.90;;;;;;5133017;28;20002;-45
2023/05/25 06:50:11;;;;;;;;;;;13.00;99.90;;;;;;5132409;28;19907;-45
2023/05/25 06:52:36;;;;;;;;;;;13.10;99.90;;;;;;5133088;28;19914;-44
2023/05/25 06:55:02;;;;;;;;;;;13.20;99.90;;;;;;5133234;28;19956;-47
2023/05/25 06:57:28;;;;;;;;;;;13.30;99.90;;;;;;5132330;28;20530;-47
2023/05/25 06:59:53;;;;;;;;;;;13.40;99.90;;;;;;5133284;28;19960;-44
2023/05/25 07:02:19;;;;;;;;;;;13.50;99.90;;;;;;5133185;28;19914;-45
2023/05/25 07:04:45;;;;;;;;;;;13.60;99.90;;;;;;5132765;28;19908;-43
2023/05/25 07:07:12;;;;;;;;;;;13.60;99.90;;;;;;5132958;28;19919;-44
2023/05/25 07:09:38;;;;;;;;;;;13.50;99.90;;;;;;5132832;28;19913;-46
2023/05/25 07:12:06;;;;;;;;;;;13.60;99.90;;;;;;5132569;27;19929;-44
2023/05/25 07:14:33;;;;;;;;;;;13.60;99.90;;;;;;5135602;27;19930;-45
2023/05/25 07:16:59;;;;;;;;;;;13.70;99.90;;;;;;5136511;27;19912;-44
2023/05/25 07:19:24;;;;;;;;;;;13.80;99.90;;;;;;5136088;27;20362;-47
2023/05/25 07:21:50;;;;;;;;;;;13.80;99.90;;;;;;5136484;27;19908;-45
2023/05/25 07:24:17;;;;;;;;;;;13.90;99.90;;;;;;5136295;27;19960;-46
2023/05/25 07:26:43;;;;;;;;;;;13.90;99.90;;;;;;5135984;27;19915;-45
2023/05/25 07:29:09;;;;;;;;;;;14.00;99.90;;;;;;5136393;27;19911;-45
2023/05/25 07:31:35;;;;;;;;;;;14.00;99.90;;;;;;5136151;27;19933;-44
2023/05/25 07:34:00;;;;;;;;;;;14.00;99.90;;;;;;5136025;27;19925;-46
2023/05/25 07:36:26;;;;;;;;;;;14.10;99.90;;;;;;5135900;27;19937;-44
2023/05/25 07:38:51;;;;;;;;;;;14.10;99.90;;;;;;5135596;27;19977;-45
2023/05/25 07:41:17;;;;;;;;;;;14.20;99.90;;;;;;5136226;27;19915;-47
2023/05/25 07:43:42;;;;;;;;;;;14.30;99.90;;;;;;5136094;27;19908;-45
2023/05/25 07:46:08;;;;;;;;;;;14.40;99.90;;;;;;5135315;27;20441;-45
2023/05/25 07:48:33;;;;;;;;;;;14.50;99.90;;;;;;5136086;27;19964;-44
2023/05/25 07:50:59;;;;;;;;;;;14.60;99.90;;;;;;5135980;27;19908;-46
2023/05/25 07:53:24;;;;;;;;;;;14.60;99.90;;;;;;5135180;27;20366;-45
2023/05/25 07:55:50;;;;;;;;;;;14.70;99.90;;;;;;5136227;27;19931;-48
2023/05/25 07:58:15;;;;;;;;;;;14.80;99.90;;;;;;5136101;27;19912;-45
2023/05/25 08:00:42;;;;;;;;;;;14.80;99.90;;;;;;5135311;27;20285;-44
2023/05/25 08:03:08;;;;;;;;;;;14.90;99.90;;;;;;5135865;27;19960;-44
2023/05/25 08:05:33;;;;;;;;;;;15.00;99.90;;;;;;5135660;27;19920;-44
2023/05/25 08:07:59;;;;;;;;;;;15.10;99.90;;;;;;5135055;27;19926;-46
2023/05/25 08:10:30;;;;;;;;;;;15.20;99.90;;;;;;5135681;27;20326;-44
2023/05/25 08:12:55;;;;;;;;;;;15.30;99.90;;;;;;5135733;27;20322;-44
2023/05/25 08:15:21;;;;;;;;;;;15.40;99.90;;;;;;5134998;27;19912;-46
2023/05/25 08:17:49;;;;;;;;;;;15.50;99.90;;;;;;5135528;27;19907;-46
2023/05/25 08:20:15;;;;;;;;;;;15.50;99.90;;;;;;5135248;27;19911;-46
2023/05/25 08:22:42;;;;;;;;;;;15.60;99.90;;;;;;5134839;27;20346;-46
2023/05/25 08:25:08;;;;;;;;;;;15.60;99.90;;;;;;5134755;27;20281;-44
2023/05/25 08:27:34;;;;;;;;;;;15.60;99.90;;;;;;5134964;27;19916;-46
2023/05/25 08:29:59;;;;;;;;;;;15.60;99.90;;;;;;5134733;27;19914;-45
2023/05/25 08:32:25;;;;;;;;;;;15.80;99.90;;;;;;5135109;27;19908;-46
2023/05/25 08:34:50;;;;;;;;;;;15.90;99.90;;;;;;5134650;27;19914;-44
2023/05/25 08:37:16;;;;;;;;;;;15.90;99.90;;;;;;5134488;27;19911;-44
2023/05/25 08:39:42;;;;;;;;;;;15.90;99.90;;;;;;5135061;27;19958;-45
2023/05/25 08:42:07;;;;;;;;;;;15.70;99.90;;;;;;5134306;27;20140;-45
2023/05/25 08:44:34;;;;;;;;;;;15.60;99.90;;;;;;5134901;27;19937;-45
2023/05/25 08:47:04;;;;;;;;;;;15.50;99.90;;;;;;5134776;27;19915;-44
2023/05/25 08:49:30;;;;;;;;;;;15.30;99.90;;;;;;5134007;27;19915;-44
2023/05/25 08:51:56;;;;;;;;;;;15.20;99.90;;;;;;5134889;27;19976;-46
2023/05/25 08:54:23;;;;;;;;;;;15.10;99.90;;;;;;5134737;27;20369;-45
2023/05/25 08:56:52;;;;;;;;;;;15.10;99.90;;;;;;5133994;27;20406;-45
2023/05/25 08:59:20;;;;;;;;;;;15.30;99.90;;;;;;5134696;27;19953;-45
2023/05/25 09:01:48;;;;;;;;;;;15.50;99.90;;;;;;5134604;27;19938;-46
2023/05/25 09:04:18;;;;;;;;;;;15.80;99.90;;;;;;5133850;27;19908;-49
2023/05/25 09:06:44;;;;;;;;;;;16.00;99.90;;;;;;5134476;27;19915;-45
2023/05/25 09:09:11;;;;;;;;;;;16.30;99.90;;;;;;5134291;27;20239;-44
2023/05/25 09:11:38;;;;;;;;;;;16.40;99.90;;;;;;5133777;27;20372;-46
2023/05/25 09:14:04;;;;;;;;;;;16.30;99.90;;;;;;5134400;27;19914;-46
2023/05/25 09:16:30;;;;;;;;;;;16.20;99.90;;;;;;5134098;27;19915;-44
2023/05/25 09:18:55;;;;;;;;;;;16.00;99.90;;;;;;5134237;27;19907;-46
2023/05/25 09:21:21;;;;;;;;;;;15.90;99.90;;;;;;5134215;27;20006;-45
2023/05/25 09:23:47;;;;;;;;;;;16.00;99.90;;;;;;5134159;27;19967;-48
2023/05/25 09:26:13;;;;;;;;;;;16.20;99.90;;;;;;5133576;27;19916;-45
2023/05/25 09:28:45;;;;;;;;;;;16.40;99.90;;;;;;5134090;27;19914;-45
2023/05/25 09:31:11;;;;;;;;;;;16.40;99.90;;;;;;5133997;27;19907;-44
2023/05/25 09:33:37;;;;;;;;;;;16.40;99.90;;;;;;5133437;27;19911;-46
2023/05/25 09:36:04;;;;;;;;;;;16.30;99.90;;;;;;5132886;27;20381;-46
2023/05/25 09:38:29;;;;;;;;;;;16.40;99.90;;;;;;5133177;27;19949;-46
2023/05/25 09:40:55;;;;;;;;;;;16.30;99.90;;;;;;5133987;27;19951;-45
2023/05/25 09:43:20;;;;;;;;;;;16.40;99.90;;;;;;5133866;27;19908;-44
2023/05/25 09:45:46;;;;;;;;;;;16.30;99.90;;;;;;5133113;27;20388;-45
2023/05/25 09:48:11;;;;;;;;;;;16.20;99.90;;;;;;5133938;27;20164;-45
2023/05/25 09:50:37;;;;;;;;;;;16.30;99.90;;;;;;5133756;27;19908;-47
2023/05/25 09:53:03;;;;;;;;;;;16.30;99.90;;;;;;5133202;27;20373;-45
2023/05/25 09:55:28;;;;;;;;;;;16.60;99.90;;;;;;5133761;27;19960;-50
2023/05/25 09:57:55;;;;;;;;;;;16.70;99.60;;;;;;5133742;27;19907;-49
2023/05/25 10:00:23;;;;;;;;;;;16.80;99.40;;;;;;5132909;28;19933;-45
2023/05/25 10:02:49;;;;;;;;;;;16.80;99.30;;;;;;5133783;28;19911;-46
2023/05/25 10:05:15;;;;;;;;;;;16.70;98.90;;;;;;5133380;28;19915;-45
2023/05/25 10:07:42;;;;;;;;;;;16.60;99.00;;;;;;5133112;28;19907;-45
2023/05/25 10:10:09;;;;;;;;;;;16.70;99.80;;;;;;5133844;28;19968;-47
2023/05/25 10:12:34;;;;;;;;;;;16.70;99.10;;;;;;5133317;28;19911;-44
2023/05/25 10:15:02;;;;;;;;;;;16.80;98.80;;;;;;5133129;28;19914;-48
2023/05/25 10:17:30;;;;;;;;;;;16.80;99.00;;;;;;5133521;28;19907;-44
2023/05/25 10:19:59;;;;;;;;;;;16.80;98.30;;;;;;5133371;28;19935;-44
2023/05/25 10:22:28;;;;;;;;;;;16.80;98.00;;;;;;5132972;28;19907;-45
2023/05/25 10:24:56;;;;;;;;;;;16.90;98.20;;;;;;5133572;28;19908;-46
2023/05/25 10:27:23;;;;;;;;;;;17.00;97.70;;;;;;5132986;28;20369;-46
2023/05/25 10:29:49;;;;;;;;;;;17.00;96.70;;;;;;5132963;28;19976;-44
2023/05/25 10:32:17;;;;;;;;;;;17.00;96.80;;;;;;5133403;28;20374;-44
2023/05/25 10:34:44;;;;;;;;;;;16.90;97.00;;;;;;5132615;28;20369;-45
2023/05/25 10:37:10;;;;;;;;;;;16.80;96.80;;;;;;5133458;28;19977;-45
2023/05/25 10:39:35;;;;;;;;;;;16.80;96.30;;;;;;5133200;28;20336;-45
2023/05/25 10:42:02;;;;;;;;;;;17.00;96.00;;;;;;5132653;28;19907;-45
2023/05/25 10:44:28;;;;;;;;;;;17.20;96.60;;;;;;5133295;28;19908;-45
2023/05/25 10:46:54;;;;;;;;;;;17.30;96.00;;;;;;5133346;27;19915;-45
2023/05/25 10:49:45;;;;;;;;;;;17.20;94.90;;;;;;5136438;27;20483;-45
2023/05/25 10:52:11;;;;;;;;;;;17.20;95.70;;;;;;5123529;27;19950;-47
2023/05/25 10:54:38;;;;;;;;;;;17.20;95.40;;;;;;5136790;27;20376;-46
2023/05/25 10:57:11;;;;;;;;;;;17.20;94.80;;;;;;5136671;27;20006;-47
2023/05/25 10:59:40;;;;;;;;;;;17.20;94.30;;;;;;5137036;27;19911;-45
2023/05/25 11:02:06;;;;;;;;;;;17.30;94.60;;;;;;5136851;27;19955;-47
2023/05/25 11:04:35;;;;;;;;;;;17.50;95.00;;;;;;5136375;27;19961;-47
2023/05/25 11:07:01;;;;;;;;;;;17.60;94.20;;;;;;5136919;27;19968;-45
2023/05/25 11:09:27;;;;;;;;;;;17.50;94.30;;;;;;5136597;27;19953;-45
2023/05/25 11:11:54;;;;;;;;;;;17.40;93.80;;;;;;5136287;27;19908;-46
2023/05/25 11:14:21;;;;;;;;;;;17.50;93.90;;;;;;5136733;27;19911;-50
2023/05/25 11:17:06;;;;;;;;;;;17.70;93.90;;;;;;5136537;27;19915;-49
2023/05/25 11:19:40;;;;;;;;;;;17.80;93.80;;;;;;5136648;27;19923;-47
2023/05/25 11:22:31;;;;;;;;;;;18.00;93.20;;;;;;5136594;27;19915;-48
2023/05/25 11:24:58;;;;;;;;;;;17.90;92.10;;;;;;5130898;27;20009;-45
2023/05/25 11:27:27;;;;;;;;;;;17.90;93.00;;;;;;5136370;27;19915;-46
2023/05/25 11:29:53;;;;;;;;;;;17.80;92.40;;;;;;5136394;27;19911;-45
2023/05/25 11:32:19;;;;;;;;;;;17.80;92.20;;;;;;5131892;27;19908;-47
2023/05/25 11:34:50;;;;;;;;;;;17.80;92.10;;;;;;5123237;27;20374;-45
2023/05/25 11:37:19;;;;;;;;;;;17.90;91.90;;;;;;5136175;27;19935;-46
2023/05/25 11:39:48;;;;;;;;;;;18.00;92.30;;;;;;5135678;27;19929;-45
2023/05/25 11:42:15;;;;;;;;;;;18.10;91.40;;;;;;5136111;27;19957;-46
2023/05/25 11:44:41;;;;;;;;;;;18.30;92.40;;;;;;5135971;27;19908;-46
2023/05/25 11:47:07;;;;;;;;;;;18.50;91.80;;;;;;5135567;27;19915;-45
2023/05/25 11:49:33;;;;;;;;;;;18.50;91.20;;;;;;5136017;27;19907;-46
2023/05/25 11:52:02;;;;;;;;;;;18.40;91.20;;;;;;5135536;27;20377;-48
2023/05/25 11:54:28;;;;;;;;;;;18.30;90.90;;;;;;5135891;27;20489;-46
2023/05/25 11:56:57;;;;;;;;;;;18.40;90.90;;;;;;5135950;27;19907;-45
2023/05/25 11:59:23;;;;;;;;;;;18.40;89.20;;;;;;5115893;27;20278;-45
2023/05/25 12:01:56;;;;;;;;;;;18.30;90.40;;;;;;5135861;27;19994;-46
2023/05/25 12:04:21;;;;;;;;;;;18.50;90.80;;;;;;5135489;27;19907;-46
2023/05/25 12:06:48;;;;;;;;;;;18.60;89.80;;;;;;5135203;27;19915;-46
2023/05/25 12:09:18;;;;;;;;;;;18.60;90.40;;;;;;5135610;27;20380;-47
2023/05/25 12:11:44;;;;;;;;;;;18.50;90.00;;;;;;5135503;27;19912;-46
2023/05/25 12:14:10;;;;;;;;;;;18.60;90.10;;;;;;5135037;27;20380;-45
2023/05/25 12:16:37;;;;;;;;;;;18.60;88.90;;;;;;5135536;27;19908;-46
2023/05/25 12:19:03;;;;;;;;;;;18.60;88.40;;;;;;5120908;27;20265;-45
2023/05/25 12:21:29;;;;;;;;;;;18.60;87.90;;;;;;5126795;27;20385;-46
2023/05/25 12:23:55;;;;;;;;;;;18.70;88.00;;;;;;5123439;27;19927;-46
2023/05/25 12:26:21;;;;;;;;;;;18.80;87.80;;;;;;5131451;27;20006;-49
2023/05/25 12:28:59;;;;;;;;;;;18.90;88.20;;;;;;5125563;27;19915;-48
2023/05/25 12:31:25;;;;;;;;;;;18.90;86.40;;;;;;5135269;27;19913;-46
2023/05/25 12:34:06;;;;;;;;;;;19.00;86.70;;;;;;5126200;27;19916;-46
2023/05/25 12:36:55;;;;;;;;;;;19.10;85.20;;;;;;5120955;27;20379;-47
2023/05/25 12:39:29;;;;;;;;;;;19.30;84.90;;;;;;5114695;27;19918;-51
2023/05/25 12:41:56;;;;;;;;;;;19.60;84.00;;;;;;5133008;27;19918;-49
2023/05/25 12:44:32;;;;;;;;;;;19.70;81.40;;;;;;5134368;27;19929;-45
2023/05/25 12:47:18;;;;;;;;;;;19.80;78.10;;;;;;5133768;27;19915;-46
2023/05/25 12:49:51;;;;;;;;;;;19.80;79.60;;;;;;5128511;27;19955;-47
2023/05/25 12:52:36;;;;;;;;;;;20.00;78.30;;;;;;5121229;27;20031;-49
2023/05/25 12:55:20;;;;;;;;;;;20.30;79.40;;;;;;5127366;27;19947;-46
2023/05/25 12:57:46;;;;;;;;;;;20.40;79.20;;;;;;5118667;27;19965;-46
2023/05/25 13:00:12;;;;;;;;;;;20.60;77.00;;;;;;5128162;27;19915;-48
2023/05/25 13:02:41;;;;;;;;;;;20.80;76.70;;;;;;5133104;27;20378;-47
2023/05/25 13:05:15;;;;;;;;;;;20.80;75.50;;;;;;5130813;27;19912;-46
2023/05/25 13:07:41;;;;;;;;;;;20.60;74.60;;;;;;5131526;27;19975;-50
2023/05/25 13:10:06;;;;;;;;;;;20.70;76.20;;;;;;5132664;27;19907;-48
2023/05/25 13:12:33;;;;;;;;;;;20.90;76.80;;;;;;5131851;27;19911;-47
2023/05/25 13:14:59;;;;;;;;;;;20.90;73.30;;;;;;5132508;27;19939;-46
2023/05/25 13:17:24;;;;;;;;;;;21.10;75.10;;;;;;5130514;27;20353;-49
2023/05/25 13:19:50;;;;;;;;;;;21.30;73.50;;;;;;5121989;27;19912;-46
2023/05/25 13:22:15;;;;;;;;;;;21.30;71.40;;;;;;5131337;27;20378;-45
2023/05/25 13:24:40;;;;;;;;;;;21.40;70.90;;;;;;5129928;27;19964;-46
2023/05/25 13:27:06;;;;;;;;;;;21.60;71.80;;;;;;5133272;27;20006;-46
2023/05/25 13:29:31;;;;;;;;;;;21.70;71.80;;;;;;5132508;27;19911;-46
2023/05/25 13:31:57;;;;;;;;;;;21.90;70.90;;;;;;5130932;27;19933;-46
2023/05/25 13:34:22;;;;;;;;;;;22.00;69.60;;;;;;5130518;27;19919;-46
2023/05/25 13:36:48;;;;;;;;;;;22.10;67.80;;;;;;5131178;27;20009;-46
2023/05/25 13:39:13;;;;;;;;;;;22.10;65.50;;;;;;5130243;27;20339;-49
2023/05/25 13:41:39;;;;;;;;;;;22.20;66.70;;;;;;5131207;27;19919;-46
2023/05/25 13:44:05;;;;;;;;;;;22.40;66.50;;;;;;5127847;27;19919;-48
2023/05/25 13:46:31;;;;;;;;;;;22.50;66.30;;;;;;5129669;27;20262;-45
2023/05/25 13:48:56;;;;;;;;;;;22.50;64.30;;;;;;5131206;27;19918;-47
2023/05/25 13:51:22;;;;;;;;;;;22.60;64.50;;;;;;5131760;27;19911;-46
2023/05/25 13:53:47;;;;;;;;;;;22.70;63.70;;;;;;5129750;27;19964;-45
2023/05/25 13:56:13;;;;;;;;;;;22.70;63.30;;;;;;5128773;27;19916;-46
2023/05/25 13:58:39;;;;;;;;;;;22.80;63.10;;;;;;5108153;27;19920;-45
2023/05/25 14:01:04;;;;;;;;;;;22.90;61.60;;;;;;5127470;27;19955;-48
2023/05/25 14:03:30;;;;;;;;;;;22.90;60.80;;;;;;5127164;28;20387;-45
2023/05/25 14:05:55;;;;;;;;;;;23.00;61.50;;;;;;5122078;28;19924;-46
2023/05/25 14:08:21;;;;;;;;;;;23.00;61.20;;;;;;5115454;28;19911;-45
2023/05/25 14:10:46;;;;;;;;;;;23.00;60.50;;;;;;5130692;28;19911;-49
2023/05/25 14:13:12;;;;;;;;;;;23.10;61.20;;;;;;5130699;28;20002;-45
2023/05/25 14:15:38;;;;;;;;;;;23.20;61.00;;;;;;5117373;28;19911;-47
2023/05/25 14:18:03;;;;;;;;;;;23.30;60.90;;;;;;5131573;28;19975;-49